KGFL/GFL METAR and TAF weather

Enter ICAO airport designator
Station Type Date Time Source
KGFL METAR 2022/12/04 10:53 UTC NOAA

KGFL 041053Z AUTO 29008KT 10SM OVC050 02/M07 A3016 RMK AO2 SLP219 T00171072


Station Type Date Time Source
KGFL Decoded METAR 2022/12/04 10:53 UTC NOAA

FLOYD BENNETT MEMORIAL AIRPORT , NY, United States (KGFL) 43-20N 073-37W 103M
Dec 04, 2022 - 05:53 AM EST / 2022.12.04 1053 UTC
Wind: from the WNW (290 degrees) at 9 MPH (8 KT):0
Visibility: 10 mile(s):0
Sky conditions: overcast
Temperature: 35.1 F (1.7 C)
Dew Point: 19.0 F (-7.2 C)
Relative Humidity: 51%
Pressure (altimeter): 30.16 in. Hg (1021 hPa)
ob: KGFL 041053Z AUTO 29008KT 10SM OVC050 02/M07 A3016 RMK AO2 SLP219 T00171072
cycle: 11

Station Type Date Time Source
KGFL TAF 2022/12/04 12:27 UTC NOAA

TAF KGFL 041123Z 0412/0512 29008KT P6SM BKN045
FM042200 21004KT P6SM FEW045
FM050200 00000KT P6SM SKC

Example: see airport list